Time;durP1;ratioP1;P1;durP2;ratioP2;P2;SDS_P1;SDS_P2;PMS_P1;PMS_P2;Temp;Humidity;BMP_temperature;BMP_pressure;BME280_temperature;BME280_humidity;BME280_pressure;Samples;Min_cycle;Max_cycle;Signal;HPM_P1;HPM_P2
2021/07/19 00:01:18;;;;;;;;;5.75;4.25;;;;;27.90;44.09;102065.19;5062271;28;45362;-77
2021/07/19 00:03:44;;;;;;;;;5.00;5.00;;;;;27.67;44.51;102028.75;5062337;28;45346;-76
2021/07/19 00:06:10;;;;;;;;;4.00;4.00;;;;;27.92;43.70;102068.53;5062237;28;45318;-77
2021/07/19 00:08:35;;;;;;;;;5.75;4.75;;;;;27.88;43.87;102056.53;5061499;28;45720;-73
2021/07/19 00:11:01;;;;;;;;;6.75;6.00;;;;;27.82;44.23;102048.25;5062185;28;45315;-77
2021/07/19 00:13:27;;;;;;;;;5.75;4.75;;;;;27.80;43.81;102049.47;5062055;28;45419;-77
2021/07/19 00:15:53;;;;;;;;;4.50;4.50;;;;;27.90;43.88;102067.84;5062190;28;45261;-77
2021/07/19 00:18:18;;;;;;;;;3.33;3.00;;;;;27.75;44.29;102044.66;5061618;28;45519;-77
2021/07/19 00:20:44;;;;;;;;;5.00;5.00;;;;;27.89;43.68;102063.53;5062195;28;45260;-77
2021/07/19 00:23:10;;;;;;;;;5.00;5.00;;;;;27.74;43.98;102033.13;5062001;28;45565;-77
2021/07/19 00:25:35;;;;;;;;;5.00;5.00;;;;;27.81;44.35;102059.16;5061883;28;45305;-77
2021/07/19 00:28:01;;;;;;;;;4.75;4.75;;;;;27.88;44.42;102062.72;5061683;28;45306;-77
2021/07/19 00:30:26;;;;;;;;;6.25;6.25;;;;;27.85;43.86;102053.22;5072224;27;45391;-77
2021/07/19 00:32:53;;;;;;;;;4.75;4.75;;;;;27.91;44.19;102062.34;5081883;28;45484;-76
2021/07/19 00:35:18;;;;;;;;;6.00;4.00;;;;;27.79;44.39;102045.91;5082232;28;45529;-77
2021/07/19 00:37:44;;;;;;;;;5.00;5.00;;;;;27.71;43.84;102033.50;5081137;28;45295;-77
2021/07/19 00:40:26;;;;;;;;;8.50;6.25;;;;;27.81;44.01;102043.94;5061399;28;45324;-77
2021/07/19 00:42:51;;;;;;;;;6.00;5.33;;;;;27.72;43.86;102029.81;5074812;27;45482;-76
2021/07/19 00:45:20;;;;;;;;;5.00;4.50;;;;;27.77;43.88;102034.59;5060256;28;45343;-76
2021/07/19 00:47:48;;;;;;;;;6.00;5.25;;;;;27.86;43.93;102048.72;5077016;28;48241;-76
2021/07/19 00:50:15;;;;;;;;;4.50;4.50;;;;;27.73;44.12;102033.34;5061670;28;45310;-76
2021/07/19 00:52:40;;;;;;;;;6.25;6.25;;;;;27.76;44.21;102035.63;5061470;28;45272;-77
2021/07/19 00:55:09;;;;;;;;;5.75;5.00;;;;;27.85;44.00;102055.06;5061353;28;45212;-77
2021/07/19 00:57:40;;;;;;;;;3.00;3.00;;;;;27.90;43.77;102063.34;5061090;28;46254;-77
2021/07/19 01:00:09;;;;;;;;;4.25;4.25;;;;;27.84;44.37;102053.44;5076621;28;45527;-76
2021/07/19 01:02:37;;;;;;;;;5.00;5.00;;;;;27.70;43.84;102026.53;5065426;28;45484;-76
2021/07/19 01:05:05;;;;;;;;;4.67;4.00;;;;;27.73;44.35;102033.34;5064153;28;45429;-77
2021/07/19 01:07:31;;;;;;;;;5.00;5.00;;;;;27.69;43.94;102024.84;5060697;28;47682;-77
2021/07/19 01:09:57;;;;;;;;;4.00;4.00;;;;;27.82;43.65;102047.41;5060756;28;45352;-76
2021/07/19 01:12:24;;;;;;;;;5.25;5.25;;;;;27.69;44.51;102024.06;5059595;28;45391;-77
2021/07/19 01:14:49;;;;;;;;;5.25;5.25;;;;;27.67;44.35;102021.56;5060947;28;45366;-76
2021/07/19 01:17:15;;;;;;;;;5.50;4.75;;;;;27.86;43.96;102062.09;5060846;28;45327;-77
2021/07/19 01:19:48;;;;;;;;;6.00;4.00;;;;;27.81;44.08;102049.28;5081431;28;45405;-76
2021/07/19 01:22:32;;;;;;;;;4.25;4.25;;;;;27.90;43.98;102054.50;5081280;28;45327;-76
2021/07/19 01:25:16;;;;;;;;;8.25;6.00;;;;;27.83;44.00;102046.41;5080908;28;45311;-76
2021/07/19 01:28:09;;;;;;;;;5.50;5.50;;;;;27.80;44.37;102036.94;5080897;28;46348;-77
2021/07/19 01:30:38;;;;;;;;;6.00;5.25;;;;;27.63;43.94;102015.78;5072903;28;45424;-76
2021/07/19 01:33:05;;;;;;;;;5.75;5.00;;;;;27.76;44.30;102029.44;5060937;28;45333;-77
2021/07/19 01:35:36;;;;;;;;;4.25;4.25;;;;;27.87;44.20;102047.66;5059256;28;45483;-77
2021/07/19 01:38:03;;;;;;;;;4.67;4.67;;;;;27.73;44.56;102030.66;5073220;28;45530;-77
2021/07/19 01:40:29;;;;;;;;;5.50;4.25;;;;;27.72;44.52;102029.81;5060286;28;45398;-77
2021/07/19 01:42:58;;;;;;;;;5.00;5.00;;;;;27.75;44.22;102031.28;5060825;28;45369;-77
2021/07/19 01:45:23;;;;;;;;;7.00;5.00;;;;;27.74;43.92;102024.28;5060497;28;45374;-77
2021/07/19 01:47:50;;;;;;;;;3.33;3.33;;;;;27.76;44.44;102024.94;5059150;28;46357;-76
2021/07/19 01:50:16;;;;;;;;;5.25;4.25;;;;;27.85;44.58;102041.69;5059551;28;45324;-77
2021/07/19 01:52:43;;;;;;;;;4.67;4.67;;;;;27.73;44.61;102020.81;5059278;28;45309;-77
2021/07/19 01:55:09;;;;;;;;;5.00;4.00;;;;;27.76;44.19;102022.25;5060071;28;45502;-77
2021/07/19 01:57:36;;;;;;;;;5.00;5.00;;;;;27.90;43.84;102038.44;5059898;28;45336;-77
2021/07/19 02:00:03;;;;;;;;;5.00;5.00;;;;;27.82;44.29;102034.03;5060365;28;45418;-77
2021/07/19 02:02:29;;;;;;;;;6.00;6.00;;;;;27.75;43.77;102015.25;5060342;28;45312;-77
2021/07/19 02:04:55;;;;;;;;;6.00;6.00;;;;;27.81;44.13;102027.06;5060045;28;45217;-77
2021/07/19 02:07:24;;;;;;;;;5.50;4.25;;;;;27.82;44.24;102023.34;5058720;28;47604;-77
2021/07/19 02:09:52;;;;;;;;;5.00;5.00;;;;;27.85;43.67;102039.03;5060159;28;45467;-76
2021/07/19 02:12:17;;;;;;;;;4.33;3.00;;;;;27.79;43.72;102035.22;5060369;28;45346;-76
2021/07/19 02:14:45;;;;;;;;;5.67;5.67;;;;;27.73;44.50;102020.81;5060245;28;45319;-77
2021/07/19 02:17:13;;;;;;;;;3.67;3.67;;;;;27.83;44.22;102036.56;5060040;28;45676;-77
2021/07/19 02:19:40;;;;;;;;;5.00;4.33;;;;;27.87;44.03;102049.53;5060138;28;45453;-77
2021/07/19 02:22:07;;;;;;;;;6.00;6.00;;;;;27.83;44.40;102035.72;5059847;28;45338;-77
2021/07/19 02:24:33;;;;;;;;;5.33;5.33;;;;;27.76;43.98;102029.44;5059894;28;45451;-76
2021/07/19 02:27:00;;;;;;;;;4.00;4.00;;;;;27.87;44.00;102042.31;5075167;28;47146;-76
2021/07/19 02:29:27;;;;;;;;;5.00;5.00;;;;;27.84;44.00;102037.38;5058884;28;45826;-77
2021/07/19 02:31:53;;;;;;;;;4.00;4.00;;;;;27.88;43.82;102044.00;5060097;28;45219;-77
2021/07/19 02:34:20;;;;;;;;;4.00;4.00;;;;;27.85;44.44;102042.53;5058448;28;45288;-77
2021/07/19 02:36:47;;;;;;;;;5.00;5.00;;;;;27.84;43.94;102032.03;5079334;28;45639;-76
2021/07/19 02:39:15;;;;;;;;;5.00;4.00;;;;;27.88;44.06;102038.66;5066365;27;45273;-76
2021/07/19 02:41:42;;;;;;;;;7.00;7.00;;;;;27.69;44.48;102008.00;5066813;28;45356;-77
2021/07/19 02:44:08;;;;;;;;;6.67;5.00;;;;;27.83;44.19;102033.88;5078590;28;45316;-76
2021/07/19 02:46:35;;;;;;;;;5.00;4.00;;;;;27.87;44.35;102041.53;5079933;28;45737;-77
2021/07/19 02:49:02;;;;;;;;;5.00;4.00;;;;;27.83;44.11;102028.53;5080216;28;45267;-76
2021/07/19 02:51:29;;;;;;;;;4.50;4.50;;;;;27.87;44.47;102036.97;5078757;28;45279;-76
2021/07/19 02:53:57;;;;;;;;;4.00;4.00;;;;;27.79;43.82;102029.88;5079601;28;45358;-76
2021/07/19 02:56:23;;;;;;;;;5.00;5.00;;;;;27.85;43.94;102033.66;5079909;27;47139;-77
2021/07/19 02:58:49;;;;;;;;;3.75;3.75;;;;;27.80;44.35;102023.56;5095432;27;45196;-77
2021/07/19 03:01:20;;;;;;;;;4.00;4.00;;;;;27.89;44.08;102036.81;5080692;27;45440;-76
2021/07/19 03:03:48;;;;;;;;;3.50;3.50;;;;;27.81;43.73;102021.72;5083345;28;45511;-77
2021/07/19 03:06:19;;;;;;;;;5.50;4.00;;;;;27.63;43.89;101985.53;5083568;28;45257;-76
2021/07/19 03:08:46;;;;;;;;;3.67;3.67;;;;;27.82;44.27;102020.69;5081722;28;45289;-77
2021/07/19 03:11:25;;;;;;;;;4.00;4.00;;;;;27.85;44.27;102021.13;5083306;28;45330;-76
2021/07/19 03:13:58;;;;;;;;;5.67;4.67;;;;;27.86;43.79;102027.31;5083017;28;45474;-77
2021/07/19 03:16:26;;;;;;;;;5.00;5.00;;;;;27.87;43.62;102028.94;5083305;28;45342;-76
2021/07/19 03:18:54;;;;;;;;;4.33;4.33;;;;;27.82;43.93;102018.00;5083037;27;45323;-77
2021/07/19 03:21:20;;;;;;;;;4.67;4.67;;;;;27.80;44.26;102015.53;5081662;28;45529;-77
2021/07/19 03:23:48;;;;;;;;;6.67;6.67;;;;;27.83;43.92;102017.00;5083109;28;45474;-77
2021/07/19 03:26:19;;;;;;;;;6.00;6.00;;;;;27.73;44.33;102002.09;5083112;28;46383;-77
2021/07/19 03:28:45;;;;;;;;;7.00;6.00;;;;;27.80;44.03;102012.03;5082697;28;45185;-77
2021/07/19 03:31:11;;;;;;;;;5.00;5.00;;;;;27.82;43.87;102013.50;5067897;28;45216;-77
2021/07/19 03:33:43;;;;;;;;;4.00;4.00;;;;;27.85;44.35;102017.63;5062780;28;45240;-77
2021/07/19 03:36:10;;;;;;;;;4.00;4.00;;;;;27.84;43.98;102021.34;5062487;28;45480;-76
2021/07/19 03:38:37;;;;;;;;;3.33;3.33;;;;;27.85;44.42;102013.09;5074065;28;45311;-77
2021/07/19 03:41:05;;;;;;;;;4.00;4.00;;;;;27.74;43.81;102001.03;5082949;28;45445;-77
2021/07/19 03:43:32;;;;;;;;;6.00;4.67;;;;;27.85;44.05;102023.81;5081110;28;45527;-76
2021/07/19 03:45:58;;;;;;;;;7.00;5.00;;;;;27.84;44.37;102016.78;5082272;28;46259;-77
2021/07/19 03:48:26;;;;;;;;;4.00;4.00;;;;;27.81;44.49;102016.38;5081549;28;45369;-77
2021/07/19 03:50:51;;;;;;;;;5.00;5.00;;;;;27.80;44.23;102015.53;5082686;27;46467;-76
2021/07/19 03:53:17;;;;;;;;;5.67;5.00;;;;;27.82;43.86;102020.69;5082569;28;45394;-77
2021/07/19 03:55:48;;;;;;;;;4.00;4.00;;;;;27.76;44.34;102006.22;5082618;28;46614;-77
2021/07/19 03:58:15;;;;;;;;;5.00;4.67;;;;;27.84;44.14;102016.00;5082726;28;45338;-77
2021/07/19 04:00:41;;;;;;;;;5.00;5.00;;;;;27.85;43.93;102025.66;5082734;28;45364;-76
2021/07/19 04:03:18;;;;;;;;;6.67;5.00;;;;;27.87;44.20;102020.13;5082607;28;45545;-76
2021/07/19 04:05:45;;;;;;;;;4.33;4.33;;;;;27.67;43.98;101980.63;5081238;28;47346;-76
2021/07/19 04:08:11;;;;;;;;;5.00;5.00;;;;;27.81;44.58;102006.50;5081056;28;45256;-77
2021/07/19 04:10:37;;;;;;;;;4.33;4.33;;;;;27.73;44.42;101991.38;5082508;28;45412;-77
2021/07/19 04:13:06;;;;;;;;;3.00;3.00;;;;;27.80;44.26;101999.50;5081260;28;45531;-77
2021/07/19 04:15:34;;;;;;;;;5.00;4.00;;;;;27.82;43.83;102009.97;5082368;27;46177;-77
2021/07/19 04:18:00;;;;;;;;;3.00;3.00;;;;;27.74;43.99;101990.34;5082381;28;45350;-77
2021/07/19 04:20:25;;;;;;;;;6.00;6.00;;;;;27.85;44.24;102002.41;5082421;28;45468;-76
2021/07/19 04:22:54;;;;;;;;;4.00;4.00;;;;;27.81;44.42;101995.81;5070851;28;45426;-77
2021/07/19 04:25:19;;;;;;;;;7.67;6.67;;;;;27.86;44.00;102005.91;5061380;28;46582;-76
2021/07/19 04:27:45;;;;;;;;;3.25;3.25;;;;;27.82;44.09;101997.44;5061163;28;45264;-76
2021/07/19 04:30:12;;;;;;;;;5.00;5.00;;;;;27.70;44.03;101967.69;5066093;28;45414;-77
2021/07/19 04:32:43;;;;;;;;;4.00;4.00;;;;;27.84;43.77;101994.59;5061439;28;45304;-77
2021/07/19 04:35:20;;;;;;;;;5.33;4.67;;;;;27.80;44.11;101982.63;5060934;28;45414;-77
2021/07/19 04:37:50;;;;;;;;;6.67;4.67;;;;;27.83;44.30;101993.75;5069045;28;45226;-76
2021/07/19 04:40:15;;;;;;;;;5.33;4.67;;;;;27.70;44.16;101967.69;5061592;28;45371;-76
2021/07/19 04:42:41;;;;;;;;;3.33;3.33;;;;;27.84;44.29;101992.72;5076781;28;45435;-76
2021/07/19 04:45:07;;;;;;;;;4.25;4.25;;;;;27.81;43.85;101989.63;5081809;28;46231;-76
2021/07/19 04:47:33;;;;;;;;;5.33;5.33;;;;;27.78;44.34;101985.47;5082015;28;45318;-77
2021/07/19 04:49:58;;;;;;;;;5.25;4.75;;;;;27.69;43.86;101975.94;5081958;28;45469;-77
2021/07/19 04:52:24;;;;;;;;;4.67;3.33;;;;;27.78;44.32;101987.31;5081573;28;45267;-76
2021/07/19 04:54:53;;;;;;;;;5.00;5.00;;;;;27.82;44.16;101996.59;5081373;28;46212;-77
2021/07/19 04:57:20;;;;;;;;;5.33;5.33;;;;;27.82;44.51;101996.59;5081604;28;45231;-77
2021/07/19 04:59:49;;;;;;;;;5.00;5.00;;;;;27.84;44.02;101994.59;5081440;28;45289;-76
2021/07/19 05:02:18;;;;;;;;;6.67;5.33;;;;;27.76;44.42;101986.66;5075863;27;45562;-76
2021/07/19 05:04:46;;;;;;;;;5.67;5.67;;;;;27.83;44.46;101988.41;5061356;28;45509;-76
2021/07/19 05:07:16;;;;;;;;;5.75;5.75;;;;;27.82;44.22;102000.13;5061159;28;45369;-76
2021/07/19 05:09:43;;;;;;;;;6.33;6.33;;;;;27.69;43.88;101974.06;5061115;28;45349;-76
2021/07/19 05:12:15;;;;;;;;;4.00;4.00;;;;;27.82;44.27;101996.59;5060622;28;45291;-76
2021/07/19 05:14:41;;;;;;;;;6.00;6.00;;;;;27.82;44.27;101994.78;5061115;28;46694;-76
2021/07/19 05:17:11;;;;;;;;;4.00;4.00;;;;;27.82;43.94;102010.81;5060951;28;45445;-76
2021/07/19 05:19:39;;;;;;;;;4.00;4.00;;;;;27.84;43.95;102010.66;5061247;28;45357;-77
2021/07/19 05:22:15;;;;;;;;;6.67;5.33;;;;;27.74;44.26;101990.34;5060866;28;45283;-76
2021/07/19 05:24:42;;;;;;;;;3.67;3.67;;;;;27.73;44.13;101994.06;5060396;28;45359;-76
2021/07/19 05:27:10;;;;;;;;;5.33;5.33;;;;;27.83;43.78;102020.50;5060631;28;45284;-76
2021/07/19 05:29:39;;;;;;;;;5.00;5.00;;;;;27.76;43.81;102002.72;5064752;28;45338;-76
2021/07/19 05:32:06;;;;;;;;;5.33;5.33;;;;;27.82;43.98;102009.97;5061010;28;45470;-75
2021/07/19 05:34:32;;;;;;;;;6.00;4.67;;;;;27.72;43.85;101991.56;5060585;28;45684;-70
2021/07/19 05:36:59;;;;;;;;;5.00;4.00;;;;;27.82;44.31;102004.63;5067148;28;45224;-74
2021/07/19 05:39:24;;;;;;;;;5.00;5.00;;;;;27.82;44.03;102015.31;5065582;27;45367;-75
2021/07/19 05:41:50;;;;;;;;;4.00;4.00;;;;;27.73;43.65;101998.56;5068462;28;45346;-74
2021/07/19 05:44:15;;;;;;;;;4.00;4.00;;;;;27.63;43.71;101981.03;5080921;28;46169;-74
2021/07/19 05:46:41;;;;;;;;;4.00;4.00;;;;;27.70;44.23;101996.28;5080633;28;45305;-72
2021/07/19 05:49:07;;;;;;;;;6.33;5.33;;;;;27.72;44.32;101996.91;5081068;28;45335;-73
2021/07/19 05:51:32;;;;;;;;;6.67;6.00;;;;;27.86;44.14;102019.28;5080716;28;45282;-71
2021/07/19 05:54:00;;;;;;;;;4.00;4.00;;;;;27.80;43.92;102010.19;5080363;28;45489;-74
2021/07/19 05:56:26;;;;;;;;;4.00;4.00;;;;;27.73;44.15;101990.56;5072381;27;45410;-74
2021/07/19 05:58:51;;;;;;;;;5.00;4.33;;;;;27.52;43.92;101960.97;5075168;28;45207;-75
2021/07/19 06:01:17;;;;;;;;;4.00;4.00;;;;;27.67;44.12;101983.28;5080853;28;45375;-75
2021/07/19 06:03:42;;;;;;;;;4.25;4.25;;;;;27.73;44.70;101993.22;5073187;28;46610;-73
2021/07/19 06:06:09;;;;;;;;;5.00;4.00;;;;;27.91;44.02;102011.53;5060335;28;45292;-73
2021/07/19 06:08:34;;;;;;;;;7.75;7.00;;;;;27.71;44.43;101981.91;5068262;28;45446;-73
2021/07/19 06:11:00;;;;;;;;;4.00;4.00;;;;;27.79;44.47;101992.44;5070398;28;45510;-73
2021/07/19 06:13:25;;;;;;;;;4.00;4.00;;;;;27.90;44.57;102017.88;5068765;28;45814;-73
2021/07/19 06:15:51;;;;;;;;;5.00;5.00;;;;;27.84;44.75;102005.28;5069076;28;45324;-73
2021/07/19 06:18:16;;;;;;;;;5.67;4.00;;;;;27.91;44.11;102013.38;5064689;28;45359;-74
2021/07/19 06:20:42;;;;;;;;;5.67;5.67;;;;;27.89;44.56;102007.38;5058710;28;45505;-75
2021/07/19 06:23:08;;;;;;;;;7.00;4.50;;;;;27.81;44.70;101994.97;5057621;28;46467;-73
2021/07/19 06:25:36;;;;;;;;;5.25;5.25;;;;;27.87;44.98;101998.72;5059335;28;45305;-73
2021/07/19 06:28:04;;;;;;;;;5.00;5.00;;;;;27.69;44.53;101973.25;5059163;28;45422;-73
2021/07/19 06:30:30;;;;;;;;;5.75;5.00;;;;;27.89;44.58;102010.91;5074370;28;45763;-73
2021/07/19 06:32:56;;;;;;;;;7.33;6.00;;;;;27.76;44.67;101979.47;5059717;28;46289;-73
2021/07/19 06:35:22;;;;;;;;;5.00;5.00;;;;;27.87;44.86;101990.72;5059426;28;45364;-73
2021/07/19 06:37:47;;;;;;;;;5.00;5.00;;;;;27.76;44.99;101978.66;5077539;28;45449;-73
2021/07/19 06:40:14;;;;;;;;;5.75;4.25;;;;;27.82;44.41;101994.78;5075347;28;45360;-73
2021/07/19 06:42:39;;;;;;;;;5.00;5.00;;;;;27.91;44.30;102013.38;5085998;27;46605;-73
2021/07/19 06:45:07;;;;;;;;;7.00;7.00;;;;;27.83;44.60;101987.59;5086759;28;45180;-73
2021/07/19 06:47:32;;;;;;;;;5.00;5.00;;;;;27.88;44.55;102006.56;5085030;27;45469;-73
2021/07/19 06:49:58;;;;;;;;;8.75;5.00;;;;;27.82;44.67;101985.91;5086944;28;45389;-73
2021/07/19 06:52:24;;;;;;;;;5.00;5.00;;;;;27.79;45.07;101989.78;5086726;28;45357;-73
2021/07/19 06:54:50;;;;;;;;;4.33;3.33;;;;;27.95;44.57;102010.09;5086702;28;45480;-73
2021/07/19 06:57:17;;;;;;;;;3.00;3.00;;;;;27.75;44.38;101983.16;5086700;27;45362;-73
2021/07/19 06:59:42;;;;;;;;;4.50;3.50;;;;;27.84;44.78;101989.25;5084867;28;45360;-72
2021/07/19 07:02:08;;;;;;;;;4.00;4.00;;;;;27.68;44.72;101967.06;5086289;28;45690;-73
2021/07/19 07:04:33;;;;;;;;;4.67;4.67;;;;;27.83;44.71;101993.75;5086911;28;45350;-73
2021/07/19 07:06:59;;;;;;;;;5.00;5.00;;;;;27.78;44.96;101980.13;5086687;28;45331;-73
2021/07/19 07:09:24;;;;;;;;;5.00;5.00;;;;;27.73;44.55;101969.16;5086564;28;45275;-73
2021/07/19 07:11:50;;;;;;;;;6.00;6.00;;;;;27.81;45.03;101976.25;5086174;28;45508;-73
2021/07/19 07:14:15;;;;;;;;;4.00;4.00;;;;;27.81;45.00;101981.59;5102324;27;45346;-73
2021/07/19 07:16:41;;;;;;;;;5.00;5.00;;;;;27.71;45.19;101963.19;5086567;28;45166;-73
2021/07/19 07:19:06;;;;;;;;;4.67;4.00;;;;;27.84;44.69;101986.56;5085047;28;45265;-73
2021/07/19 07:21:32;;;;;;;;;6.00;6.00;;;;;27.89;44.63;101989.50;5084684;28;47274;-73
2021/07/19 07:23:58;;;;;;;;;5.00;5.00;;;;;27.93;44.62;101995.28;5086242;28;45240;-72
2021/07/19 07:26:26;;;;;;;;;5.25;5.25;;;;;27.99;44.48;102002.53;5086417;27;45292;-73
2021/07/19 07:28:52;;;;;;;;;5.67;5.67;;;;;27.86;44.77;101989.88;5086006;28;45275;-73
2021/07/19 07:31:17;;;;;;;;;6.00;5.75;;;;;27.68;44.60;101959.06;5070980;28;45664;-74
2021/07/19 07:33:43;;;;;;;;;5.00;5.00;;;;;27.86;44.71;101987.19;5064602;28;45419;-73
2021/07/19 07:36:08;;;;;;;;;6.33;5.00;;;;;28.00;44.91;102014.88;5066101;28;45447;-73
2021/07/19 07:38:34;;;;;;;;;5.00;5.00;;;;;27.92;45.00;101996.31;5077402;28;45400;-73
2021/07/19 07:41:00;;;;;;;;;6.00;6.00;;;;;27.84;44.59;101982.03;5066830;28;45240;-73
2021/07/19 07:43:26;;;;;;;;;4.75;4.25;;;;;27.76;44.95;101971.47;5090748;27;45773;-73
2021/07/19 07:45:52;;;;;;;;;5.00;5.00;;;;;27.92;44.99;101999.78;5085948;28;45323;-73
2021/07/19 07:48:18;;;;;;;;;9.50;8.00;;;;;28.00;44.53;102009.53;5083936;28;45149;-73
2021/07/19 07:50:44;;;;;;;;;6.00;6.00;;;;;27.90;45.00;101998.31;5081246;28;45476;-73
2021/07/19 07:53:10;;;;;;;;;4.50;4.50;;;;;27.76;44.53;101966.13;5082551;28;45431;-73
2021/07/19 07:55:37;;;;;;;;;4.33;4.33;;;;;27.89;44.55;101992.19;5081426;28;45373;-73
2021/07/19 07:58:03;;;;;;;;;5.00;5.00;;;;;27.72;45.12;101968.34;5081165;28;45406;-73
2021/07/19 08:00:28;;;;;;;;;6.00;6.00;;;;;28.00;44.83;102011.41;5082365;28;45377;-73
2021/07/19 08:02:55;;;;;;;;;5.67;5.67;;;;;27.98;44.69;102010.72;5081447;28;45670;-73
2021/07/19 08:05:20;;;;;;;;;5.00;4.50;;;;;27.94;44.91;101992.41;5082626;28;45201;-73
2021/07/19 08:07:46;;;;;;;;;7.00;7.00;;;;;27.91;44.59;101991.97;5081280;28;45528;-73
2021/07/19 08:10:13;;;;;;;;;5.00;5.00;;;;;27.81;44.71;101979.75;5082101;28;45415;-73
2021/07/19 08:12:38;;;;;;;;;7.50;6.50;;;;;27.80;45.42;101974.59;5081034;28;45314;-73
2021/07/19 08:15:06;;;;;;;;;6.75;6.50;;;;;28.02;45.37;102006.66;5098160;27;45621;-73
2021/07/19 08:17:32;;;;;;;;;5.00;5.00;;;;;27.91;44.65;101995.47;5098276;27;45535;-73
2021/07/19 08:19:58;;;;;;;;;7.00;4.50;;;;;27.93;45.39;101990.75;5080820;28;47269;-73
2021/07/19 08:22:24;;;;;;;;;5.00;5.00;;;;;27.81;44.73;101970.91;5082288;28;45284;-73
2021/07/19 08:24:50;;;;;;;;;5.50;5.00;;;;;27.87;45.10;101983.50;5079433;28;45271;-73
2021/07/19 08:27:16;;;;;;;;;4.50;4.50;;;;;27.87;45.06;101985.38;5080804;28;45505;-73
2021/07/19 08:29:41;;;;;;;;;7.00;5.33;;;;;27.90;44.93;101993.81;5066752;28;45291;-73
2021/07/19 08:32:07;;;;;;;;;3.00;3.00;;;;;27.86;44.64;101979.19;5060312;28;45684;-73
2021/07/19 08:34:33;;;;;;;;;5.25;5.25;;;;;27.73;45.27;101953.97;5077621;28;45339;-73
2021/07/19 08:36:59;;;;;;;;;5.50;5.50;;;;;27.85;45.19;101975.69;5082003;28;45368;-73
2021/07/19 08:39:25;;;;;;;;;4.75;4.75;;;;;27.90;44.73;101976.94;5065762;28;46289;-73
2021/07/19 08:41:50;;;;;;;;;5.25;5.25;;;;;27.99;45.35;101996.34;5069948;28;45399;-73
2021/07/19 08:44:16;;;;;;;;;6.00;6.00;;;;;27.79;45.14;101971.06;5081677;28;45460;-73
2021/07/19 08:46:41;;;;;;;;;5.00;5.00;;;;;27.98;44.74;101978.63;5082328;28;45397;-73
2021/07/19 08:49:08;;;;;;;;;8.67;6.00;;;;;27.94;45.38;101978.22;5081789;28;45371;-73
2021/07/19 08:51:39;;;;;;;;;5.25;4.00;;;;;28.04;44.96;101996.59;5082112;27;45291;-73
2021/07/19 08:54:05;;;;;;;;;4.67;4.67;;;;;27.85;44.77;101964.97;5081133;28;45441;-73
2021/07/19 08:56:31;;;;;;;;;5.75;4.00;;;;;27.93;44.79;101980.06;5081831;28;45448;-73
2021/07/19 08:58:57;;;;;;;;;6.00;6.00;;;;;27.94;45.27;101987.06;5080868;28;45401;-73
2021/07/19 09:01:23;;;;;;;;;4.00;4.00;;;;;28.06;45.00;101991.88;5081622;28;45327;-73
2021/07/19 09:03:48;;;;;;;;;4.33;4.33;;;;;27.79;45.11;101948.88;5081645;28;45313;-73
2021/07/19 09:06:14;;;;;;;;;5.00;5.00;;;;;28.00;45.06;101976.63;5064689;28;45421;-73
2021/07/19 09:08:47;;;;;;;;;5.00;5.00;;;;;27.91;45.01;101957.19;5059315;28;46533;-73
2021/07/19 09:11:13;;;;;;;;;5.00;5.00;;;;;27.85;45.21;101953.44;5061239;28;45497;-73
2021/07/19 09:13:54;;;;;;;;;6.00;6.00;;;;;27.92;45.31;101959.66;5060051;28;45411;-73
2021/07/19 09:16:20;;;;;;;;;6.00;5.00;;;;;28.01;45.11;101975.59;5061249;28;45348;-73
2021/07/19 09:18:45;;;;;;;;;6.00;4.33;;;;;28.00;44.46;101966.72;5060753;28;45667;-73
2021/07/19 09:21:45;;;;;;;;;6.75;5.25;;;;;28.06;44.59;101968.63;5061197;28;45290;-73
2021/07/19 09:24:13;;;;;;;;;6.00;5.00;;;;;27.99;45.12;101953.56;5066212;28;45459;-73
2021/07/19 09:26:40;;;;;;;;;5.25;5.00;;;;;27.91;44.85;101939.31;5081214;28;45420;-73
2021/07/19 09:29:08;;;;;;;;;5.75;4.75;;;;;28.00;44.69;101957.91;5080990;28;45701;-72
2021/07/19 09:31:42;;;;;;;;;3.67;3.67;;;;;27.95;44.94;101948.59;5064161;27;45401;-73
2021/07/19 09:34:17;;;;;;;;;6.25;6.25;;;;;27.81;44.45;101925.44;5060903;28;45347;-73
2021/07/19 09:37:04;;;;;;;;;5.00;4.50;;;;;28.04;44.57;101956.47;5063458;28;45494;-73
2021/07/19 09:39:33;;;;;;;;;5.00;5.00;;;;;27.98;45.00;101951.91;5076625;27;45458;-73
2021/07/19 09:42:05;;;;;;;;;4.67;4.67;;;;;28.10;44.65;101962.91;5071977;28;45512;-73
2021/07/19 09:44:31;;;;;;;;;5.67;5.67;;;;;27.95;44.92;101935.22;5079559;28;45267;-73
2021/07/19 09:47:06;;;;;;;;;5.00;4.00;;;;;27.82;44.85;101924.41;5079329;28;45587;-73
2021/07/19 09:49:32;;;;;;;;;5.00;5.00;;;;;28.12;44.87;101963.53;5080625;28;45370;-73
2021/07/19 09:52:09;;;;;;;;;5.00;5.00;;;;;28.09;44.51;101963.91;5071654;28;45322;-73
2021/07/19 09:54:37;;;;;;;;;5.67;5.00;;;;;27.92;44.53;101932.13;5060013;28;45492;-73
2021/07/19 09:57:02;;;;;;;;;5.25;4.75;;;;;27.94;44.27;101944.28;5060208;28;45425;-73
2021/07/19 09:59:28;;;;;;;;;6.25;5.00;;;;;28.09;44.55;101972.78;5060080;28;45355;-73
2021/07/19 10:01:54;;;;;;;;;4.00;4.00;;;;;28.01;44.52;101946.16;5062195;28;45316;-73
2021/07/19 10:04:20;;;;;;;;;4.33;4.33;;;;;27.94;44.98;101935.44;5060559;28;45244;-73
2021/07/19 10:06:49;;;;;;;;;6.00;6.00;;;;;27.92;45.10;101937.47;5060387;28;45306;-73
2021/07/19 10:09:15;;;;;;;;;4.33;4.33;;;;;27.91;44.76;101933.97;5066607;28;46896;-74
2021/07/19 10:11:52;;;;;;;;;6.50;5.50;;;;;28.03;44.97;101957.47;5078143;28;46124;-73
2021/07/19 10:14:27;;;;;;;;;6.00;6.00;;;;;27.99;44.79;101945.53;5080687;28;45358;-73
2021/07/19 10:16:53;;;;;;;;;5.00;5.00;;;;;28.10;45.03;101958.38;5080363;28;45406;-73
2021/07/19 10:19:21;;;;;;;;;7.00;5.75;;;;;28.00;44.63;101944.53;5080513;28;45575;-73
2021/07/19 10:21:47;;;;;;;;;6.33;6.33;;;;;27.98;44.93;101939.34;5080206;28;45221;-74
2021/07/19 10:24:12;;;;;;;;;5.00;5.00;;;;;28.11;44.63;101953.84;5080523;28;45353;-73
2021/07/19 10:26:38;;;;;;;;;7.25;5.50;;;;;28.07;44.34;101953.41;5080343;28;45517;-73
2021/07/19 10:29:04;;;;;;;;;5.00;5.00;;;;;28.03;44.94;101944.13;5061268;28;46215;-74
2021/07/19 10:31:31;;;;;;;;;5.25;5.25;;;;;27.92;44.23;101932.94;5064065;27;45323;-74
2021/07/19 10:33:59;;;;;;;;;7.75;6.00;;;;;28.11;44.43;101948.50;5066155;28;45468;-74
2021/07/19 10:36:39;;;;;;;;;4.33;4.33;;;;;27.96;44.36;101946.75;5079514;27;45185;-73
2021/07/19 10:39:11;;;;;;;;;5.25;4.75;;;;;28.02;44.89;101939.81;5059798;28;45605;-73
2021/07/19 10:41:38;;;;;;;;;5.50;4.00;;;;;28.02;44.45;101937.97;5064886;28;45327;-73
2021/07/19 10:44:09;;;;;;;;;5.00;5.00;;;;;28.10;44.27;101941.50;5080166;28;45367;-73
2021/07/19 10:46:36;;;;;;;;;3.00;3.00;;;;;27.95;44.94;101926.38;5080003;27;45500;-73
2021/07/19 10:49:07;;;;;;;;;5.67;5.67;;;;;28.06;44.43;101933.03;5079964;28;46459;-73
2021/07/19 10:51:39;;;;;;;;;5.50;5.00;;;;;28.14;44.90;101943.59;5078905;28;45708;-73
2021/07/19 10:54:18;;;;;;;;;6.33;5.00;;;;;27.93;44.41;101907.84;5079709;28;45405;-73
2021/07/19 10:56:44;;;;;;;;;6.00;6.00;;;;;27.95;44.35;101915.66;5079991;28;45256;-73
2021/07/19 10:59:22;;;;;;;;;6.50;5.50;;;;;28.16;44.40;101938.03;5079143;28;46623;-73
2021/07/19 11:01:55;;;;;;;;;7.00;5.75;;;;;27.98;44.74;101906.44;5078667;28;45240;-74
2021/07/19 11:04:22;;;;;;;;;6.75;5.25;;;;;27.95;44.19;101897.78;5080348;28;45465;-73
2021/07/19 11:06:51;;;;;;;;;6.75;6.75;;;;;27.83;44.78;101891.31;5079474;28;45454;-73
2021/07/19 11:09:20;;;;;;;;;4.25;4.25;;;;;28.15;44.30;101947.09;5079240;28;46231;-74
2021/07/19 11:11:46;;;;;;;;;5.00;5.00;;;;;28.05;44.53;101929.53;5073660;28;45268;-74
2021/07/19 11:14:24;;;;;;;;;4.75;4.75;;;;;27.86;44.39;101896.28;5059312;28;45174;-74
2021/07/19 11:16:52;;;;;;;;;5.75;5.75;;;;;28.16;44.14;101938.84;5059440;28;45375;-74
2021/07/19 11:19:36;;;;;;;;;4.33;4.33;;;;;28.08;44.58;101917.59;5059354;28;45641;-73
2021/07/19 11:22:10;;;;;;;;;8.50;7.00;;;;;28.09;44.50;101921.94;5059602;28;45444;-74
2021/07/19 11:24:48;;;;;;;;;4.00;4.00;;;;;28.08;44.33;101914.94;5061802;28;45313;-74
2021/07/19 11:27:20;;;;;;;;;5.00;5.00;;;;;27.99;44.68;101908.91;5071084;28;45311;-73